sensor_id;sensor_type;location;lat;lon;timestamp;temperature;humidity
10530;DHT22;5313;48.834;9.228;2022-07-29T00:00:12;20.70;99.90
10530;DHT22;5313;48.834;9.228;2022-07-29T00:02:37;20.80;99.90
10530;DHT22;5313;48.834;9.228;2022-07-29T00:05:04;20.70;99.90
10530;DHT22;5313;48.834;9.228;2022-07-29T00:07:30;20.50;99.90
10530;DHT22;5313;48.834;9.228;2022-07-29T00:09:55;20.50;99.90
10530;DHT22;5313;48.834;9.228;2022-07-29T00:12:23;20.40;99.90
10530;DHT22;5313;48.834;9.228;2022-07-29T00:14:48;20.50;99.90
10530;DHT22;5313;48.834;9.228;2022-07-29T00:17:14;20.70;99.90
10530;DHT22;5313;48.834;9.228;2022-07-29T00:19:39;20.70;99.90
10530;DHT22;5313;48.834;9.228;2022-07-29T00:22:05;20.60;99.90
10530;DHT22;5313;48.834;9.228;2022-07-29T00:24:30;20.60;99.90
10530;DHT22;5313;48.834;9.228;2022-07-29T00:26:56;20.50;99.90
10530;DHT22;5313;48.834;9.228;2022-07-29T00:29:21;20.60;99.90
10530;DHT22;5313;48.834;9.228;2022-07-29T00:31:47;20.50;99.90
10530;DHT22;5313;48.834;9.228;2022-07-29T00:34:13;20.50;99.90
10530;DHT22;5313;48.834;9.228;2022-07-29T00:36:57;20.70;99.90
10530;DHT22;5313;48.834;9.228;2022-07-29T00:39:23;20.80;99.90
10530;DHT22;5313;48.834;9.228;2022-07-29T00:41:48;20.80;99.90
10530;DHT22;5313;48.834;9.228;2022-07-29T00:44:14;20.50;99.90
10530;DHT22;5313;48.834;9.228;2022-07-29T00:46:40;20.40;99.90
10530;DHT22;5313;48.834;9.228;2022-07-29T00:49:05;20.30;99.90
10530;DHT22;5313;48.834;9.228;2022-07-29T00:51:34;20.20;99.90
10530;DHT22;5313;48.834;9.228;2022-07-29T00:54:00;20.20;99.90
10530;DHT22;5313;48.834;9.228;2022-07-29T00:56:26;20.10;99.90
10530;DHT22;5313;48.834;9.228;2022-07-29T00:58:53;20.50;99.90
10530;DHT22;5313;48.834;9.228;2022-07-29T01:01:21;20.60;99.90
10530;DHT22;5313;48.834;9.228;2022-07-29T01:03:46;20.90;99.90
10530;DHT22;5313;48.834;9.228;2022-07-29T01:06:12;20.80;99.90
10530;DHT22;5313;48.834;9.228;2022-07-29T01:08:37;20.50;99.90
10530;DHT22;5313;48.834;9.228;2022-07-29T01:11:03;20.50;99.90
10530;DHT22;5313;48.834;9.228;2022-07-29T01:13:30;20.30;99.90
10530;DHT22;5313;48.834;9.228;2022-07-29T01:16:06;20.20;99.90
10530;DHT22;5313;48.834;9.228;2022-07-29T01:18:36;20.00;99.90
10530;DHT22;5313;48.834;9.228;2022-07-29T01:21:44;20.40;99.90
10530;DHT22;5313;48.834;9.228;2022-07-29T01:24:39;20.70;99.90
10530;DHT22;5313;48.834;9.228;2022-07-29T01:27:38;20.90;99.90
10530;DHT22;5313;48.834;9.228;2022-07-29T01:30:06;21.10;99.90
10530;DHT22;5313;48.834;9.228;2022-07-29T01:32:34;21.10;99.90
10530;DHT22;5313;48.834;9.228;2022-07-29T01:35:21;20.60;99.90
10530;DHT22;5313;48.834;9.228;2022-07-29T01:37:50;20.20;99.90
10530;DHT22;5313;48.834;9.228;2022-07-29T01:40:33;20.10;99.90
10530;DHT22;5313;48.834;9.228;2022-07-29T01:43:06;19.80;99.90
10530;DHT22;5313;48.834;9.228;2022-07-29T01:45:39;19.70;99.90
10530;DHT22;5313;48.834;9.228;2022-07-29T01:48:18;19.70;99.90
10530;DHT22;5313;48.834;9.228;2022-07-29T01:51:00;20.00;99.90
10530;DHT22;5313;48.834;9.228;2022-07-29T01:53:35;20.00;99.90
10530;DHT22;5313;48.834;9.228;2022-07-29T01:56:02;20.10;99.90
10530;DHT22;5313;48.834;9.228;2022-07-29T01:58:29;20.10;99.90
10530;DHT22;5313;48.834;9.228;2022-07-29T02:00:57;20.20;99.90
10530;DHT22;5313;48.834;9.228;2022-07-29T02:03:24;20.30;99.90
10530;DHT22;5313;48.834;9.228;2022-07-29T02:05:52;20.40;99.90
10530;DHT22;5313;48.834;9.228;2022-07-29T02:08:19;20.50;99.90
10530;DHT22;5313;48.834;9.228;2022-07-29T02:10:45;20.30;99.90
10530;DHT22;5313;48.834;9.228;2022-07-29T02:13:13;20.10;99.90
10530;DHT22;5313;48.834;9.228;2022-07-29T02:15:42;20.00;99.90
10530;DHT22;5313;48.834;9.228;2022-07-29T02:18:17;20.00;99.90
10530;DHT22;5313;48.834;9.228;2022-07-29T02:20:48;19.70;99.90
10530;DHT22;5313;48.834;9.228;2022-07-29T02:23:18;20.00;99.90
10530;DHT22;5313;48.834;9.228;2022-07-29T02:25:45;19.80;99.90
10530;DHT22;5313;48.834;9.228;2022-07-29T02:28:13;19.70;99.90
10530;DHT22;5313;48.834;9.228;2022-07-29T02:30:41;19.90;99.90
10530;DHT22;5313;48.834;9.228;2022-07-29T02:33:10;19.80;99.90
10530;DHT22;5313;48.834;9.228;2022-07-29T02:35:38;19.70;99.90
10530;DHT22;5313;48.834;9.228;2022-07-29T02:38:05;19.90;99.90
10530;DHT22;5313;48.834;9.228;2022-07-29T02:40:50;19.80;99.90
10530;DHT22;5313;48.834;9.228;2022-07-29T02:43:19;19.60;99.90
10530;DHT22;5313;48.834;9.228;2022-07-29T02:45:47;19.30;99.90
10530;DHT22;5313;48.834;9.228;2022-07-29T02:48:16;19.30;99.90
10530;DHT22;5313;48.834;9.228;2022-07-29T02:50:51;19.20;99.90
10530;DHT22;5313;48.834;9.228;2022-07-29T02:53:23;19.10;99.90
10530;DHT22;5313;48.834;9.228;2022-07-29T02:55:56;19.20;99.90
10530;DHT22;5313;48.834;9.228;2022-07-29T02:58:26;18.80;99.90
10530;DHT22;5313;48.834;9.228;2022-07-29T03:00:56;18.50;99.90
10530;DHT22;5313;48.834;9.228;2022-07-29T03:03:25;18.70;99.90
10530;DHT22;5313;48.834;9.228;2022-07-29T03:05:57;18.70;99.90
10530;DHT22;5313;48.834;9.228;2022-07-29T03:08:23;18.60;99.90
10530;DHT22;5313;48.834;9.228;2022-07-29T03:10:50;18.70;99.90
10530;DHT22;5313;48.834;9.228;2022-07-29T03:13:16;18.70;99.90
10530;DHT22;5313;48.834;9.228;2022-07-29T03:15:44;18.80;99.90
10530;DHT22;5313;48.834;9.228;2022-07-29T03:18:10;19.30;99.90
10530;DHT22;5313;48.834;9.228;2022-07-29T03:20:37;19.00;99.90
10530;DHT22;5313;48.834;9.228;2022-07-29T03:23:04;18.80;99.90
10530;DHT22;5313;48.834;9.228;2022-07-29T03:25:30;18.70;99.90
10530;DHT22;5313;48.834;9.228;2022-07-29T03:27:56;19.60;99.90
10530;DHT22;5313;48.834;9.228;2022-07-29T03:30:22;18.40;99.90
10530;DHT22;5313;48.834;9.228;2022-07-29T03:32:49;18.60;99.90
10530;DHT22;5313;48.834;9.228;2022-07-29T03:35:15;19.20;99.90
10530;DHT22;5313;48.834;9.228;2022-07-29T03:37:42;19.00;99.90
10530;DHT22;5313;48.834;9.228;2022-07-29T03:40:10;19.00;99.90
10530;DHT22;5313;48.834;9.228;2022-07-29T03:42:38;18.90;99.90
10530;DHT22;5313;48.834;9.228;2022-07-29T03:45:12;18.90;99.90
10530;DHT22;5313;48.834;9.228;2022-07-29T03:47:42;18.70;99.90
10530;DHT22;5313;48.834;9.228;2022-07-29T03:50:11;18.70;99.90
10530;DHT22;5313;48.834;9.228;2022-07-29T03:52:39;18.80;99.90
10530;DHT22;5313;48.834;9.228;2022-07-29T03:55:05;19.30;99.90
10530;DHT22;5313;48.834;9.228;2022-07-29T03:57:32;18.80;99.90
10530;DHT22;5313;48.834;9.228;2022-07-29T03:59:59;18.90;99.90
10530;DHT22;5313;48.834;9.228;2022-07-29T04:02:25;18.90;99.90
10530;DHT22;5313;48.834;9.228;2022-07-29T04:04:52;18.80;99.90
10530;DHT22;5313;48.834;9.228;2022-07-29T04:07:17;18.70;99.90
10530;DHT22;5313;48.834;9.228;2022-07-29T04:09:43;18.80;99.90
10530;DHT22;5313;48.834;9.228;2022-07-29T04:12:09;19.00;99.90
10530;DHT22;5313;48.834;9.228;2022-07-29T04:14:35;19.20;99.90
10530;DHT22;5313;48.834;9.228;2022-07-29T04:17:01;18.90;99.90
10530;DHT22;5313;48.834;9.228;2022-07-29T04:19:28;18.60;99.90
10530;DHT22;5313;48.834;9.228;2022-07-29T04:21:53;18.70;99.90
10530;DHT22;5313;48.834;9.228;2022-07-29T04:24:19;18.70;99.90
10530;DHT22;5313;48.834;9.228;2022-07-29T04:26:46;19.00;99.90
10530;DHT22;5313;48.834;9.228;2022-07-29T04:29:11;19.40;99.90
10530;DHT22;5313;48.834;9.228;2022-07-29T04:31:39;19.10;99.90
10530;DHT22;5313;48.834;9.228;2022-07-29T04:34:05;19.40;99.90
10530;DHT22;5313;48.834;9.228;2022-07-29T04:36:30;19.30;99.90
10530;DHT22;5313;48.834;9.228;2022-07-29T04:38:56;18.80;99.90
10530;DHT22;5313;48.834;9.228;2022-07-29T04:41:22;18.70;99.90
10530;DHT22;5313;48.834;9.228;2022-07-29T04:43:48;18.70;99.90
10530;DHT22;5313;48.834;9.228;2022-07-29T04:46:13;18.40;99.90
10530;DHT22;5313;48.834;9.228;2022-07-29T04:48:39;18.60;99.90
10530;DHT22;5313;48.834;9.228;2022-07-29T04:51:04;19.20;99.90
10530;DHT22;5313;48.834;9.228;2022-07-29T04:53:30;19.20;99.90
10530;DHT22;5313;48.834;9.228;2022-07-29T04:55:55;19.20;99.90
10530;DHT22;5313;48.834;9.228;2022-07-29T04:58:21;19.40;99.90
10530;DHT22;5313;48.834;9.228;2022-07-29T05:00:49;19.40;99.90
10530;DHT22;5313;48.834;9.228;2022-07-29T05:03:14;19.40;99.90
10530;DHT22;5313;48.834;9.228;2022-07-29T05:05:40;19.40;99.90
10530;DHT22;5313;48.834;9.228;2022-07-29T05:08:06;19.30;99.90
10530;DHT22;5313;48.834;9.228;2022-07-29T05:10:31;19.30;99.90
10530;DHT22;5313;48.834;9.228;2022-07-29T05:12:57;19.30;99.90
10530;DHT22;5313;48.834;9.228;2022-07-29T05:15:23;19.20;99.90
10530;DHT22;5313;48.834;9.228;2022-07-29T05:17:49;19.50;99.90
10530;DHT22;5313;48.834;9.228;2022-07-29T05:20:14;20.40;99.90
10530;DHT22;5313;48.834;9.228;2022-07-29T05:22:40;20.50;99.90
10530;DHT22;5313;48.834;9.228;2022-07-29T05:25:06;20.60;99.90
10530;DHT22;5313;48.834;9.228;2022-07-29T05:27:31;20.80;99.90
10530;DHT22;5313;48.834;9.228;2022-07-29T05:29:57;21.10;99.90
10530;DHT22;5313;48.834;9.228;2022-07-29T05:32:22;21.60;99.90
10530;DHT22;5313;48.834;9.228;2022-07-29T05:34:48;21.50;99.90
10530;DHT22;5313;48.834;9.228;2022-07-29T05:37:13;21.40;99.90
10530;DHT22;5313;48.834;9.228;2022-07-29T05:39:39;21.20;99.90
10530;DHT22;5313;48.834;9.228;2022-07-29T05:42:09;20.80;99.90
10530;DHT22;5313;48.834;9.228;2022-07-29T05:44:39;20.60;99.90
10530;DHT22;5313;48.834;9.228;2022-07-29T05:47:04;20.40;99.90
10530;DHT22;5313;48.834;9.228;2022-07-29T05:49:30;20.50;99.90
10530;DHT22;5313;48.834;9.228;2022-07-29T05:54:23;21.10;99.90
10530;DHT22;5313;48.834;9.228;2022-07-29T05:56:49;21.00;99.90
10530;DHT22;5313;48.834;9.228;2022-07-29T05:59:15;21.20;99.90
10530;DHT22;5313;48.834;9.228;2022-07-29T06:01:40;21.00;99.90
10530;DHT22;5313;48.834;9.228;2022-07-29T06:04:07;21.10;99.90
10530;DHT22;5313;48.834;9.228;2022-07-29T06:06:33;21.10;99.90
10530;DHT22;5313;48.834;9.228;2022-07-29T06:08:59;21.20;99.90
10530;DHT22;5313;48.834;9.228;2022-07-29T06:11:25;21.60;99.90
10530;DHT22;5313;48.834;9.228;2022-07-29T06:13:51;21.60;99.90
10530;DHT22;5313;48.834;9.228;2022-07-29T06:16:16;21.50;99.90
10530;DHT22;5313;48.834;9.228;2022-07-29T06:18:42;21.30;99.90
10530;DHT22;5313;48.834;9.228;2022-07-29T06:21:08;21.40;99.90
10530;DHT22;5313;48.834;9.228;2022-07-29T06:23:35;21.80;99.90
10530;DHT22;5313;48.834;9.228;2022-07-29T06:26:01;22.10;99.90
10530;DHT22;5313;48.834;9.228;2022-07-29T06:28:27;22.10;99.90
10530;DHT22;5313;48.834;9.228;2022-07-29T06:30:53;22.00;99.90
10530;DHT22;5313;48.834;9.228;2022-07-29T06:33:19;22.00;99.90
10530;DHT22;5313;48.834;9.228;2022-07-29T06:35:45;22.00;99.90
10530;DHT22;5313;48.834;9.228;2022-07-29T06:38:12;22.10;99.90
10530;DHT22;5313;48.834;9.228;2022-07-29T06:40:41;22.20;99.90
10530;DHT22;5313;48.834;9.228;2022-07-29T06:43:27;22.40;99.90
10530;DHT22;5313;48.834;9.228;2022-07-29T06:45:52;22.50;99.90
10530;DHT22;5313;48.834;9.228;2022-07-29T06:48:18;22.60;99.90
10530;DHT22;5313;48.834;9.228;2022-07-29T06:50:43;22.80;99.90
10530;DHT22;5313;48.834;9.228;2022-07-29T06:53:09;23.10;99.90
10530;DHT22;5313;48.834;9.228;2022-07-29T06:55:34;23.00;99.90
10530;DHT22;5313;48.834;9.228;2022-07-29T06:58:02;22.80;99.90
10530;DHT22;5313;48.834;9.228;2022-07-29T07:00:27;23.00;99.90
10530;DHT22;5313;48.834;9.228;2022-07-29T07:02:53;23.00;99.90
10530;DHT22;5313;48.834;9.228;2022-07-29T07:05:18;23.00;99.90
10530;DHT22;5313;48.834;9.228;2022-07-29T07:07:44;23.00;99.90
10530;DHT22;5313;48.834;9.228;2022-07-29T07:10:09;23.00;99.90
10530;DHT22;5313;48.834;9.228;2022-07-29T07:12:35;23.00;99.90
10530;DHT22;5313;48.834;9.228;2022-07-29T07:15:00;23.20;99.90
10530;DHT22;5313;48.834;9.228;2022-07-29T07:17:26;23.10;99.90
10530;DHT22;5313;48.834;9.228;2022-07-29T07:19:51;23.20;99.90
10530;DHT22;5313;48.834;9.228;2022-07-29T07:22:17;23.40;99.90
10530;DHT22;5313;48.834;9.228;2022-07-29T07:24:42;23.60;99.90
10530;DHT22;5313;48.834;9.228;2022-07-29T07:27:08;23.50;99.90
10530;DHT22;5313;48.834;9.228;2022-07-29T07:29:33;23.60;99.90
10530;DHT22;5313;48.834;9.228;2022-07-29T07:31:59;23.80;99.90
10530;DHT22;5313;48.834;9.228;2022-07-29T07:34:24;23.90;99.90
10530;DHT22;5313;48.834;9.228;2022-07-29T07:36:50;23.90;99.90
10530;DHT22;5313;48.834;9.228;2022-07-29T07:39:15;23.70;99.90
10530;DHT22;5313;48.834;9.228;2022-07-29T07:41:40;23.70;99.90
10530;DHT22;5313;48.834;9.228;2022-07-29T07:44:06;23.70;99.90
10530;DHT22;5313;48.834;9.228;2022-07-29T07:46:31;23.60;99.90
10530;DHT22;5313;48.834;9.228;2022-07-29T07:48:57;23.80;99.90
10530;DHT22;5313;48.834;9.228;2022-07-29T07:51:23;24.00;99.90
10530;DHT22;5313;48.834;9.228;2022-07-29T07:53:48;24.10;99.90
10530;DHT22;5313;48.834;9.228;2022-07-29T07:56:17;24.30;99.90
10530;DHT22;5313;48.834;9.228;2022-07-29T07:58:43;24.50;99.90
10530;DHT22;5313;48.834;9.228;2022-07-29T08:01:09;24.80;99.90
10530;DHT22;5313;48.834;9.228;2022-07-29T08:03:34;24.80;99.90
10530;DHT22;5313;48.834;9.228;2022-07-29T08:06:00;24.70;99.90
10530;DHT22;5313;48.834;9.228;2022-07-29T08:08:26;24.70;99.90
10530;DHT22;5313;48.834;9.228;2022-07-29T08:10:52;24.50;99.90
10530;DHT22;5313;48.834;9.228;2022-07-29T08:13:22;24.70;99.90
10530;DHT22;5313;48.834;9.228;2022-07-29T08:15:48;24.60;99.90
10530;DHT22;5313;48.834;9.228;2022-07-29T08:18:23;24.60;99.90
10530;DHT22;5313;48.834;9.228;2022-07-29T08:20:49;24.70;99.90
10530;DHT22;5313;48.834;9.228;2022-07-29T08:23:14;24.70;99.90
10530;DHT22;5313;48.834;9.228;2022-07-29T08:25:40;24.70;99.90
10530;DHT22;5313;48.834;9.228;2022-07-29T08:28:07;24.70;99.90
10530;DHT22;5313;48.834;9.228;2022-07-29T08:30:33;24.90;99.90
10530;DHT22;5313;48.834;9.228;2022-07-29T08:32:59;25.20;99.90
10530;DHT22;5313;48.834;9.228;2022-07-29T08:35:25;25.20;99.90
10530;DHT22;5313;48.834;9.228;2022-07-29T08:37:51;25.30;99.90
10530;DHT22;5313;48.834;9.228;2022-07-29T08:40:17;25.40;99.90
10530;DHT22;5313;48.834;9.228;2022-07-29T08:42:43;25.40;99.90
10530;DHT22;5313;48.834;9.228;2022-07-29T08:45:09;25.50;99.90
10530;DHT22;5313;48.834;9.228;2022-07-29T08:47:35;25.70;99.90
10530;DHT22;5313;48.834;9.228;2022-07-29T08:50:05;25.70;99.90
10530;DHT22;5313;48.834;9.228;2022-07-29T08:52:33;25.70;99.90
10530;DHT22;5313;48.834;9.228;2022-07-29T08:55:00;25.70;99.90
10530;DHT22;5313;48.834;9.228;2022-07-29T08:57:26;25.50;99.90
10530;DHT22;5313;48.834;9.228;2022-07-29T08:59:52;25.60;99.90
10530;DHT22;5313;48.834;9.228;2022-07-29T09:02:21;25.60;99.90
10530;DHT22;5313;48.834;9.228;2022-07-29T09:04:47;25.60;99.90
10530;DHT22;5313;48.834;9.228;2022-07-29T09:07:17;25.60;99.90
10530;DHT22;5313;48.834;9.228;2022-07-29T09:09:43;25.50;99.90
10530;DHT22;5313;48.834;9.228;2022-07-29T09:12:10;25.80;99.90
10530;DHT22;5313;48.834;9.228;2022-07-29T09:14:37;26.00;99.90
10530;DHT22;5313;48.834;9.228;2022-07-29T09:17:03;26.10;99.90
10530;DHT22;5313;48.834;9.228;2022-07-29T09:19:31;26.20;99.90
10530;DHT22;5313;48.834;9.228;2022-07-29T09:21:59;26.10;99.90
10530;DHT22;5313;48.834;9.228;2022-07-29T09:27:24;26.40;99.90
10530;DHT22;5313;48.834;9.228;2022-07-29T09:30:01;26.70;99.90
10530;DHT22;5313;48.834;9.228;2022-07-29T09:32:28;26.80;99.90
10530;DHT22;5313;48.834;9.228;2022-07-29T09:35:22;26.90;99.90
10530;DHT22;5313;48.834;9.228;2022-07-29T09:37:48;26.70;99.90
10530;DHT22;5313;48.834;9.228;2022-07-29T09:40:16;26.60;99.90
10530;DHT22;5313;48.834;9.228;2022-07-29T09:42:42;26.50;99.90
10530;DHT22;5313;48.834;9.228;2022-07-29T09:45:08;26.60;99.90
10530;DHT22;5313;48.834;9.228;2022-07-29T09:47:47;26.90;99.90
10530;DHT22;5313;48.834;9.228;2022-07-29T09:50:15;27.10;99.90
10530;DHT22;5313;48.834;9.228;2022-07-29T09:52:48;27.50;99.90
10530;DHT22;5313;48.834;9.228;2022-07-29T09:55:14;27.70;99.90
10530;DHT22;5313;48.834;9.228;2022-07-29T09:57:40;27.50;99.90
10530;DHT22;5313;48.834;9.228;2022-07-29T10:00:07;27.10;99.90
10530;DHT22;5313;48.834;9.228;2022-07-29T10:02:35;27.20;99.90
10530;DHT22;5313;48.834;9.228;2022-07-29T10:05:04;27.60;99.90
10530;DHT22;5313;48.834;9.228;2022-07-29T10:07:45;27.90;99.90
10530;DHT22;5313;48.834;9.228;2022-07-29T10:10:10;27.90;99.90
10530;DHT22;5313;48.834;9.228;2022-07-29T10:12:49;27.40;99.90
10530;DHT22;5313;48.834;9.228;2022-07-29T10:15:15;27.40;99.90
10530;DHT22;5313;48.834;9.228;2022-07-29T10:17:42;27.40;99.90
10530;DHT22;5313;48.834;9.228;2022-07-29T10:20:08;27.30;99.90
10530;DHT22;5313;48.834;9.228;2022-07-29T10:22:34;27.20;99.90
10530;DHT22;5313;48.834;9.228;2022-07-29T10:24:59;26.90;99.90
10530;DHT22;5313;48.834;9.228;2022-07-29T10:27:25;26.80;99.90
10530;DHT22;5313;48.834;9.228;2022-07-29T10:29:50;26.60;99.90
10530;DHT22;5313;48.834;9.228;2022-07-29T10:44:02;25.90;99.90
10530;DHT22;5313;48.834;9.228;2022-07-29T10:46:37;25.70;99.90
10530;DHT22;5313;48.834;9.228;2022-07-29T10:49:23;25.50;99.90
10530;DHT22;5313;48.834;9.228;2022-07-29T10:59:42;25.50;99.90
10530;DHT22;5313;48.834;9.228;2022-07-29T11:05:06;25.40;99.90
10530;DHT22;5313;48.834;9.228;2022-07-29T11:07:35;25.40;99.90
10530;DHT22;5313;48.834;9.228;2022-07-29T11:15:10;25.20;99.90
10530;DHT22;5313;48.834;9.228;2022-07-29T11:26:16;23.50;99.90
10530;DHT22;5313;48.834;9.228;2022-07-29T11:29:18;23.20;99.90
10530;DHT22;5313;48.834;9.228;2022-07-29T11:31:47;22.80;99.90
10530;DHT22;5313;48.834;9.228;2022-07-29T11:34:26;22.50;99.90
10530;DHT22;5313;48.834;9.228;2022-07-29T11:39:37;22.10;99.90
10530;DHT22;5313;48.834;9.228;2022-07-29T11:45:18;21.90;99.90
10530;DHT22;5313;48.834;9.228;2022-07-29T11:50:34;21.50;99.90
10530;DHT22;5313;48.834;9.228;2022-07-29T11:53:01;21.30;99.90
10530;DHT22;5313;48.834;9.228;2022-07-29T11:55:28;21.20;99.90
10530;DHT22;5313;48.834;9.228;2022-07-29T11:57:56;21.30;99.90
10530;DHT22;5313;48.834;9.228;2022-07-29T12:00:36;21.20;99.90
10530;DHT22;5313;48.834;9.228;2022-07-29T12:03:05;21.20;99.90
10530;DHT22;5313;48.834;9.228;2022-07-29T12:08:14;21.30;99.90
10530;DHT22;5313;48.834;9.228;2022-07-29T12:10:41;21.60;99.90
10530;DHT22;5313;48.834;9.228;2022-07-29T12:13:08;21.90;99.90
10530;DHT22;5313;48.834;9.228;2022-07-29T12:15:34;22.30;99.90
10530;DHT22;5313;48.834;9.228;2022-07-29T12:18:18;22.30;99.90
10530;DHT22;5313;48.834;9.228;2022-07-29T12:20:46;22.10;99.90
10530;DHT22;5313;48.834;9.228;2022-07-29T12:23:12;21.90;99.90
10530;DHT22;5313;48.834;9.228;2022-07-29T12:25:39;21.90;99.90
10530;DHT22;5313;48.834;9.228;2022-07-29T12:28:10;22.20;99.90
10530;DHT22;5313;48.834;9.228;2022-07-29T12:30:37;22.50;99.90
10530;DHT22;5313;48.834;9.228;2022-07-29T12:33:11;22.30;99.90
10530;DHT22;5313;48.834;9.228;2022-07-29T12:35:37;22.10;99.90
10530;DHT22;5313;48.834;9.228;2022-07-29T12:38:03;22.00;99.90
10530;DHT22;5313;48.834;9.228;2022-07-29T12:40:29;22.00;99.90
10530;DHT22;5313;48.834;9.228;2022-07-29T12:43:08;21.90;99.90
10530;DHT22;5313;48.834;9.228;2022-07-29T12:45:34;21.70;99.90
10530;DHT22;5313;48.834;9.228;2022-07-29T12:48:00;21.70;99.90
10530;DHT22;5313;48.834;9.228;2022-07-29T12:50:26;21.60;99.90
10530;DHT22;5313;48.834;9.228;2022-07-29T12:52:51;21.50;99.90
10530;DHT22;5313;48.834;9.228;2022-07-29T12:55:44;21.40;99.90
10530;DHT22;5313;48.834;9.228;2022-07-29T12:58:10;21.40;99.90
10530;DHT22;5313;48.834;9.228;2022-07-29T13:00:36;21.30;99.90
10530;DHT22;5313;48.834;9.228;2022-07-29T13:03:01;21.20;99.90
10530;DHT22;5313;48.834;9.228;2022-07-29T13:05:41;21.20;99.90
10530;DHT22;5313;48.834;9.228;2022-07-29T13:08:12;21.20;99.90
10530;DHT22;5313;48.834;9.228;2022-07-29T13:10:38;21.30;99.90
10530;DHT22;5313;48.834;9.228;2022-07-29T13:13:08;21.40;99.90
10530;DHT22;5313;48.834;9.228;2022-07-29T13:15:38;21.30;99.90
10530;DHT22;5313;48.834;9.228;2022-07-29T13:18:05;21.40;99.90
10530;DHT22;5313;48.834;9.228;2022-07-29T13:20:31;21.40;99.90
10530;DHT22;5313;48.834;9.228;2022-07-29T13:22:58;21.40;99.90
10530;DHT22;5313;48.834;9.228;2022-07-29T13:25:28;21.40;99.90
10530;DHT22;5313;48.834;9.228;2022-07-29T13:27:54;21.50;99.90
10530;DHT22;5313;48.834;9.228;2022-07-29T13:30:20;21.40;99.90
10530;DHT22;5313;48.834;9.228;2022-07-29T13:32:46;21.40;99.90
10530;DHT22;5313;48.834;9.228;2022-07-29T13:35:13;21.10;99.90
10530;DHT22;5313;48.834;9.228;2022-07-29T13:37:39;20.80;99.90
10530;DHT22;5313;48.834;9.228;2022-07-29T13:40:06;20.60;99.90
10530;DHT22;5313;48.834;9.228;2022-07-29T13:42:32;20.30;99.90
10530;DHT22;5313;48.834;9.228;2022-07-29T13:44:58;20.20;99.90
10530;DHT22;5313;48.834;9.228;2022-07-29T13:47:24;20.20;99.90
10530;DHT22;5313;48.834;9.228;2022-07-29T13:49:50;20.30;99.90
10530;DHT22;5313;48.834;9.228;2022-07-29T13:52:16;20.50;99.90
10530;DHT22;5313;48.834;9.228;2022-07-29T13:54:42;20.70;99.90
10530;DHT22;5313;48.834;9.228;2022-07-29T13:57:09;21.10;99.90
10530;DHT22;5313;48.834;9.228;2022-07-29T13:59:35;21.10;99.90
10530;DHT22;5313;48.834;9.228;2022-07-29T14:02:01;21.20;99.90
10530;DHT22;5313;48.834;9.228;2022-07-29T14:04:27;21.70;99.90
10530;DHT22;5313;48.834;9.228;2022-07-29T14:06:53;21.80;99.90
10530;DHT22;5313;48.834;9.228;2022-07-29T14:09:18;22.00;99.90
10530;DHT22;5313;48.834;9.228;2022-07-29T14:11:44;22.10;99.90
10530;DHT22;5313;48.834;9.228;2022-07-29T14:14:11;22.10;99.90
10530;DHT22;5313;48.834;9.228;2022-07-29T14:16:36;22.20;99.90
10530;DHT22;5313;48.834;9.228;2022-07-29T14:19:02;22.20;99.90
10530;DHT22;5313;48.834;9.228;2022-07-29T14:21:28;22.10;99.90
10530;DHT22;5313;48.834;9.228;2022-07-29T14:23:53;22.00;99.90
10530;DHT22;5313;48.834;9.228;2022-07-29T14:26:20;22.10;99.90
10530;DHT22;5313;48.834;9.228;2022-07-29T14:28:46;22.20;99.90
10530;DHT22;5313;48.834;9.228;2022-07-29T14:31:12;22.10;99.90
10530;DHT22;5313;48.834;9.228;2022-07-29T14:33:37;22.00;99.90
10530;DHT22;5313;48.834;9.228;2022-07-29T14:36:03;22.00;99.90
10530;DHT22;5313;48.834;9.228;2022-07-29T14:38:29;22.00;99.90
10530;DHT22;5313;48.834;9.228;2022-07-29T14:40:54;22.10;99.90
10530;DHT22;5313;48.834;9.228;2022-07-29T14:43:20;22.30;99.90
10530;DHT22;5313;48.834;9.228;2022-07-29T14:45:45;22.40;99.90
10530;DHT22;5313;48.834;9.228;2022-07-29T14:48:11;22.50;99.90
10530;DHT22;5313;48.834;9.228;2022-07-29T14:50:37;22.60;99.90
10530;DHT22;5313;48.834;9.228;2022-07-29T14:53:03;22.80;99.90
10530;DHT22;5313;48.834;9.228;2022-07-29T14:55:29;22.90;99.90
10530;DHT22;5313;48.834;9.228;2022-07-29T14:57:55;23.00;99.90
10530;DHT22;5313;48.834;9.228;2022-07-29T15:00:21;23.00;99.90
10530;DHT22;5313;48.834;9.228;2022-07-29T15:02:47;22.90;99.90
10530;DHT22;5313;48.834;9.228;2022-07-29T15:05:13;23.00;99.90
10530;DHT22;5313;48.834;9.228;2022-07-29T15:07:38;22.90;99.90
10530;DHT22;5313;48.834;9.228;2022-07-29T15:10:04;22.90;99.90
10530;DHT22;5313;48.834;9.228;2022-07-29T15:12:30;22.90;99.90
10530;DHT22;5313;48.834;9.228;2022-07-29T15:14:56;22.90;99.90
10530;DHT22;5313;48.834;9.228;2022-07-29T15:17:22;22.80;99.90
10530;DHT22;5313;48.834;9.228;2022-07-29T15:19:47;22.80;99.90
10530;DHT22;5313;48.834;9.228;2022-07-29T15:22:13;22.90;99.90
10530;DHT22;5313;48.834;9.228;2022-07-29T15:24:38;22.90;99.90
10530;DHT22;5313;48.834;9.228;2022-07-29T15:27:04;22.80;99.90
10530;DHT22;5313;48.834;9.228;2022-07-29T15:29:30;22.80;99.90
10530;DHT22;5313;48.834;9.228;2022-07-29T15:31:55;22.90;99.90
10530;DHT22;5313;48.834;9.228;2022-07-29T15:34:21;22.80;99.90
10530;DHT22;5313;48.834;9.228;2022-07-29T15:36:49;22.90;99.90
10530;DHT22;5313;48.834;9.228;2022-07-29T15:39:15;22.90;99.90
10530;DHT22;5313;48.834;9.228;2022-07-29T15:41:40;22.90;99.90
10530;DHT22;5313;48.834;9.228;2022-07-29T15:44:06;22.90;99.90
10530;DHT22;5313;48.834;9.228;2022-07-29T15:46:31;22.80;99.90
10530;DHT22;5313;48.834;9.228;2022-07-29T15:49:15;22.90;99.90
10530;DHT22;5313;48.834;9.228;2022-07-29T15:51:41;22.90;99.90
10530;DHT22;5313;48.834;9.228;2022-07-29T15:54:07;23.00;99.90
10530;DHT22;5313;48.834;9.228;2022-07-29T15:56:32;23.00;99.90
10530;DHT22;5313;48.834;9.228;2022-07-29T15:58:58;23.00;99.90
10530;DHT22;5313;48.834;9.228;2022-07-29T16:01:24;23.00;99.90
10530;DHT22;5313;48.834;9.228;2022-07-29T16:03:49;23.10;99.90
10530;DHT22;5313;48.834;9.228;2022-07-29T16:06:15;23.10;99.90
10530;DHT22;5313;48.834;9.228;2022-07-29T16:08:41;23.00;99.90
10530;DHT22;5313;48.834;9.228;2022-07-29T16:11:06;23.10;99.90
10530;DHT22;5313;48.834;9.228;2022-07-29T16:13:32;23.20;99.90
10530;DHT22;5313;48.834;9.228;2022-07-29T16:15:57;23.30;99.90
10530;DHT22;5313;48.834;9.228;2022-07-29T16:18:23;23.30;99.90
10530;DHT22;5313;48.834;9.228;2022-07-29T16:20:48;23.30;99.90
10530;DHT22;5313;48.834;9.228;2022-07-29T16:23:14;23.40;99.90
10530;DHT22;5313;48.834;9.228;2022-07-29T16:25:41;23.40;99.90
10530;DHT22;5313;48.834;9.228;2022-07-29T16:28:07;23.40;99.90
10530;DHT22;5313;48.834;9.228;2022-07-29T16:30:34;23.20;99.90
10530;DHT22;5313;48.834;9.228;2022-07-29T16:33:00;23.30;99.90
10530;DHT22;5313;48.834;9.228;2022-07-29T16:35:25;23.40;99.90
10530;DHT22;5313;48.834;9.228;2022-07-29T16:37:51;23.40;99.90
10530;DHT22;5313;48.834;9.228;2022-07-29T16:40:16;23.40;99.90